sensor_id;sensor_type;location;lat;lon;timestamp;pressure;altitude;pressure_sealevel;temperature;humidity
5522;BME280;2783;48.730;8.006;2023-03-23T00:01:04;99430.63;;;16.00;63.63
5522;BME280;2783;48.730;8.006;2023-03-23T00:03:30;99434.97;;;16.03;63.36
5522;BME280;2783;48.730;8.006;2023-03-23T00:05:57;99418.56;;;16.07;62.78
5522;BME280;2783;48.730;8.006;2023-03-23T00:08:29;99420.38;;;16.07;62.57
5522;BME280;2783;48.730;8.006;2023-03-23T00:10:54;99431.88;;;16.09;63.14
5522;BME280;2783;48.730;8.006;2023-03-23T00:13:23;99436.28;;;16.10;63.63
5522;BME280;2783;48.730;8.006;2023-03-23T00:15:48;99439.16;;;16.07;64.33
5522;BME280;2783;48.730;8.006;2023-03-23T00:18:15;99434.97;;;16.03;64.30
5522;BME280;2783;48.730;8.006;2023-03-23T00:20:54;99429.03;;;15.98;65.77
5522;BME280;2783;48.730;8.006;2023-03-23T00:23:21;99423.75;;;15.96;66.46
5522;BME280;2783;48.730;8.006;2023-03-23T00:25:48;99416.00;;;15.92;67.34
5522;BME280;2783;48.730;8.006;2023-03-23T00:28:14;99427.69;;;15.91;67.85
5522;BME280;2783;48.730;8.006;2023-03-23T00:30:40;99418.19;;;15.85;68.50
5522;BME280;2783;48.730;8.006;2023-03-23T00:33:07;99423.28;;;15.90;68.23
5522;BME280;2783;48.730;8.006;2023-03-23T00:35:32;99415.63;;;15.83;68.96
5522;BME280;2783;48.730;8.006;2023-03-23T00:37:57;99409.88;;;15.75;68.05
5522;BME280;2783;48.730;8.006;2023-03-23T00:40:23;99402.03;;;15.72;69.33
5522;BME280;2783;48.730;8.006;2023-03-23T00:42:49;99408.16;;;15.74;69.56
5522;BME280;2783;48.730;8.006;2023-03-23T00:45:14;99402.91;;;15.73;69.45
5522;BME280;2783;48.730;8.006;2023-03-23T00:47:40;99396.88;;;15.69;69.17
5522;BME280;2783;48.730;8.006;2023-03-23T00:50:06;99393.31;;;15.69;69.65
5522;BME280;2783;48.730;8.006;2023-03-23T00:52:32;99398.47;;;15.72;68.93
5522;BME280;2783;48.730;8.006;2023-03-23T00:54:57;99395.69;;;15.73;68.55
5522;BME280;2783;48.730;8.006;2023-03-23T00:57:23;99390.91;;;15.78;69.43
5522;BME280;2783;48.730;8.006;2023-03-23T00:59:52;99387.28;;;15.79;69.39
5522;BME280;2783;48.730;8.006;2023-03-23T01:02:17;99393.50;;;15.80;69.95
5522;BME280;2783;48.730;8.006;2023-03-23T01:04:44;99394.56;;;15.77;70.72
5522;BME280;2783;48.730;8.006;2023-03-23T01:07:10;99388.22;;;15.78;69.73
5522;BME280;2783;48.730;8.006;2023-03-23T01:09:37;99391.00;;;15.77;69.85
5522;BME280;2783;48.730;8.006;2023-03-23T01:12:04;99380.59;;;15.72;70.84
5522;BME280;2783;48.730;8.006;2023-03-23T01:14:30;99373.31;;;15.74;70.35
5522;BME280;2783;48.730;8.006;2023-03-23T01:16:56;99367.38;;;15.69;70.52
5522;BME280;2783;48.730;8.006;2023-03-23T01:19:21;99367.47;;;15.68;72.14
5522;BME280;2783;48.730;8.006;2023-03-23T01:21:47;99366.81;;;15.64;72.52
5522;BME280;2783;48.730;8.006;2023-03-23T01:24:12;99359.06;;;15.60;72.34
5522;BME280;2783;48.730;8.006;2023-03-23T01:26:37;99358.19;;;15.59;72.71
5522;BME280;2783;48.730;8.006;2023-03-23T01:29:03;99356.44;;;15.58;72.57
5522;BME280;2783;48.730;8.006;2023-03-23T01:31:28;99350.44;;;15.55;72.54
5522;BME280;2783;48.730;8.006;2023-03-23T01:33:53;99353.03;;;15.56;71.59
5522;BME280;2783;48.730;8.006;2023-03-23T01:36:24;99348.50;;;15.57;72.17
5522;BME280;2783;48.730;8.006;2023-03-23T01:38:51;99339.53;;;15.58;72.33
5522;BME280;2783;48.730;8.006;2023-03-23T01:41:17;99338.47;;;15.60;70.58
5522;BME280;2783;48.730;8.006;2023-03-23T01:43:56;99333.00;;;15.62;71.27
5522;BME280;2783;48.730;8.006;2023-03-23T01:46:23;99329.38;;;15.63;69.64
5522;BME280;2783;48.730;8.006;2023-03-23T01:48:48;99327.94;;;15.71;69.43
5522;BME280;2783;48.730;8.006;2023-03-23T01:51:14;99316.91;;;15.76;69.28
5522;BME280;2783;48.730;8.006;2023-03-23T01:53:48;99321.19;;;15.78;68.45
5522;BME280;2783;48.730;8.006;2023-03-23T01:56:16;99313.03;;;15.80;67.82
5522;BME280;2783;48.730;8.006;2023-03-23T01:58:44;99313.88;;;15.95;66.36
5522;BME280;2783;48.730;8.006;2023-03-23T02:01:10;99294.59;;;16.02;66.63
5522;BME280;2783;48.730;8.006;2023-03-23T02:03:37;99293.44;;;16.06;65.61
5522;BME280;2783;48.730;8.006;2023-03-23T02:06:03;99297.53;;;16.12;65.15
5522;BME280;2783;48.730;8.006;2023-03-23T02:08:29;99289.16;;;16.16;66.19
5522;BME280;2783;48.730;8.006;2023-03-23T02:10:57;99294.41;;;16.18;65.73
5522;BME280;2783;48.730;8.006;2023-03-23T02:13:22;99284.56;;;16.18;66.15
5522;BME280;2783;48.730;8.006;2023-03-23T02:15:50;99293.69;;;16.16;66.15
5522;BME280;2783;48.730;8.006;2023-03-23T02:26:02;99291.09;;;16.14;66.83
5522;BME280;2783;48.730;8.006;2023-03-23T02:36:30;99284.53;;;16.06;67.02
5522;BME280;2783;48.730;8.006;2023-03-23T02:39:08;99287.97;;;16.08;67.82
5522;BME280;2783;48.730;8.006;2023-03-23T02:41:39;99284.41;;;16.07;67.17
5522;BME280;2783;48.730;8.006;2023-03-23T02:44:06;99276.28;;;16.09;66.86
5522;BME280;2783;48.730;8.006;2023-03-23T02:46:32;99267.66;;;16.04;67.17
5522;BME280;2783;48.730;8.006;2023-03-23T02:49:00;99282.88;;;16.03;67.31
5522;BME280;2783;48.730;8.006;2023-03-23T02:51:27;99276.69;;;16.03;67.89
5522;BME280;2783;48.730;8.006;2023-03-23T02:53:54;99277.53;;;16.03;67.70
5522;BME280;2783;48.730;8.006;2023-03-23T02:56:20;99264.88;;;16.05;67.75
5522;BME280;2783;48.730;8.006;2023-03-23T02:58:48;99273.78;;;16.06;67.27
5522;BME280;2783;48.730;8.006;2023-03-23T03:01:14;99268.22;;;16.09;67.95
5522;BME280;2783;48.730;8.006;2023-03-23T03:03:41;99272.72;;;16.08;67.33
5522;BME280;2783;48.730;8.006;2023-03-23T03:06:09;99265.75;;;16.06;68.04
5522;BME280;2783;48.730;8.006;2023-03-23T03:08:41;99270.44;;;16.02;66.64
5522;BME280;2783;48.730;8.006;2023-03-23T03:11:14;99271.78;;;16.09;67.54
5522;BME280;2783;48.730;8.006;2023-03-23T03:17:00;99263.19;;;16.17;65.60
5522;BME280;2783;48.730;8.006;2023-03-23T03:19:29;99273.72;;;16.20;66.17
5522;BME280;2783;48.730;8.006;2023-03-23T03:21:57;99275.34;;;16.22;65.58
5522;BME280;2783;48.730;8.006;2023-03-23T03:24:24;99266.44;;;16.22;66.77
5522;BME280;2783;48.730;8.006;2023-03-23T03:26:52;99264.91;;;16.18;66.07
5522;BME280;2783;48.730;8.006;2023-03-23T03:29:22;99263.84;;;16.20;66.26
5522;BME280;2783;48.730;8.006;2023-03-23T03:31:49;99260.63;;;16.15;66.47
5522;BME280;2783;48.730;8.006;2023-03-23T03:34:16;99268.66;;;16.15;66.54
5522;BME280;2783;48.730;8.006;2023-03-23T03:36:43;99272.22;;;16.16;66.96
5522;BME280;2783;48.730;8.006;2023-03-23T03:39:10;99276.81;;;16.14;66.24
5522;BME280;2783;48.730;8.006;2023-03-23T03:41:37;99275.00;;;16.14;66.44
5522;BME280;2783;48.730;8.006;2023-03-23T03:44:03;99276.81;;;16.14;67.68
5522;BME280;2783;48.730;8.006;2023-03-23T03:46:29;99277.03;;;16.11;67.28
5522;BME280;2783;48.730;8.006;2023-03-23T03:48:56;99277.03;;;16.11;67.59
5522;BME280;2783;48.730;8.006;2023-03-23T03:51:22;99268.63;;;16.03;67.84
5522;BME280;2783;48.730;8.006;2023-03-23T03:53:47;99272.38;;;16.00;68.46
5522;BME280;2783;48.730;8.006;2023-03-23T03:56:12;99273.25;;;16.01;68.87
5522;BME280;2783;48.730;8.006;2023-03-23T03:58:38;99268.09;;;15.98;68.35
5522;BME280;2783;48.730;8.006;2023-03-23T04:01:03;99284.19;;;15.98;68.31
5522;BME280;2783;48.730;8.006;2023-03-23T04:03:29;99278.81;;;15.98;68.59
5522;BME280;2783;48.730;8.006;2023-03-23T04:05:54;99280.72;;;15.96;68.03
5522;BME280;2783;48.730;8.006;2023-03-23T04:08:23;99286.84;;;15.98;68.89
5522;BME280;2783;48.730;8.006;2023-03-23T04:10:49;99288.56;;;15.99;68.74
5522;BME280;2783;48.730;8.006;2023-03-23T04:13:14;99278.81;;;15.98;68.95
5522;BME280;2783;48.730;8.006;2023-03-23T04:15:40;99293.06;;;15.98;68.82
5522;BME280;2783;48.730;8.006;2023-03-23T04:18:05;99293.16;;;15.97;68.85
5522;BME280;2783;48.730;8.006;2023-03-23T04:20:31;99296.16;;;15.92;67.65
5522;BME280;2783;48.730;8.006;2023-03-23T04:22:56;99294.56;;;15.90;68.89
5522;BME280;2783;48.730;8.006;2023-03-23T04:25:22;99299.91;;;15.90;69.23
5522;BME280;2783;48.730;8.006;2023-03-23T04:27:50;99304.41;;;15.89;69.12
5522;BME280;2783;48.730;8.006;2023-03-23T04:30:18;99307.97;;;15.90;69.75
5522;BME280;2783;48.730;8.006;2023-03-23T04:32:44;99304.50;;;15.88;69.49
5522;BME280;2783;48.730;8.006;2023-03-23T04:35:10;99304.06;;;15.81;70.07
5522;BME280;2783;48.730;8.006;2023-03-23T04:37:36;99299.53;;;15.81;69.54
5522;BME280;2783;48.730;8.006;2023-03-23T04:40:02;99297.63;;;15.83;70.42
5522;BME280;2783;48.730;8.006;2023-03-23T04:42:32;99297.63;;;15.83;70.42
5522;BME280;2783;48.730;8.006;2023-03-23T04:44:57;99309.78;;;15.75;70.42
5522;BME280;2783;48.730;8.006;2023-03-23T04:47:23;99308.75;;;15.77;69.89
5522;BME280;2783;48.730;8.006;2023-03-23T04:49:49;99314.97;;;15.78;69.90
5522;BME280;2783;48.730;8.006;2023-03-23T04:52:15;99313.13;;;15.78;70.91
5522;BME280;2783;48.730;8.006;2023-03-23T04:54:41;99310.66;;;15.75;70.95
5522;BME280;2783;48.730;8.006;2023-03-23T04:57:06;99312.19;;;15.79;70.08
5522;BME280;2783;48.730;8.006;2023-03-23T04:59:33;99324.84;;;15.77;70.71
5522;BME280;2783;48.730;8.006;2023-03-23T05:01:58;99330.41;;;15.74;71.35
5522;BME280;2783;48.730;8.006;2023-03-23T05:04:24;99337.47;;;15.75;72.55
5522;BME280;2783;48.730;8.006;2023-03-23T05:06:50;99325.31;;;15.70;73.72
5522;BME280;2783;48.730;8.006;2023-03-23T05:09:15;99316.63;;;15.66;73.29
5522;BME280;2783;48.730;8.006;2023-03-23T05:11:41;99320.47;;;15.62;73.53
5522;BME280;2783;48.730;8.006;2023-03-23T05:14:06;99320.47;;;15.62;72.49
5522;BME280;2783;48.730;8.006;2023-03-23T05:16:31;99320.25;;;15.65;72.75
5522;BME280;2783;48.730;8.006;2023-03-23T05:18:56;99331.38;;;15.59;73.81
5522;BME280;2783;48.730;8.006;2023-03-23T05:21:25;99327.94;;;15.57;72.58
5522;BME280;2783;48.730;8.006;2023-03-23T05:23:51;99329.63;;;15.58;72.45
5522;BME280;2783;48.730;8.006;2023-03-23T05:26:20;99334.84;;;15.61;71.72
5522;BME280;2783;48.730;8.006;2023-03-23T05:28:45;99336.34;;;15.65;72.50
5522;BME280;2783;48.730;8.006;2023-03-23T05:31:10;99347.28;;;15.62;72.87
5522;BME280;2783;48.730;8.006;2023-03-23T05:33:36;99344.00;;;15.57;75.09
5522;BME280;2783;48.730;8.006;2023-03-23T05:36:01;99347.19;;;15.50;74.73
5522;BME280;2783;48.730;8.006;2023-03-23T05:38:29;99349.78;;;15.51;74.72
5522;BME280;2783;48.730;8.006;2023-03-23T05:40:57;99357.25;;;15.46;74.45
5522;BME280;2783;48.730;8.006;2023-03-23T05:43:24;99355.50;;;15.45;74.97
5522;BME280;2783;48.730;8.006;2023-03-23T05:45:50;99353.59;;;15.47;74.78
5522;BME280;2783;48.730;8.006;2023-03-23T05:48:15;99355.50;;;15.45;75.29
5522;BME280;2783;48.730;8.006;2023-03-23T05:50:41;99357.59;;;15.40;76.34
5522;BME280;2783;48.730;8.006;2023-03-23T05:53:06;99362.13;;;15.40;76.73
5522;BME280;2783;48.730;8.006;2023-03-23T05:55:31;99361.63;;;15.33;76.70
5522;BME280;2783;48.730;8.006;2023-03-23T05:57:57;99351.00;;;15.32;75.15
5522;BME280;2783;48.730;8.006;2023-03-23T06:00:23;99359.78;;;15.34;75.46
5522;BME280;2783;48.730;8.006;2023-03-23T06:02:49;99357.19;;;15.32;75.62
5522;BME280;2783;48.730;8.006;2023-03-23T06:05:16;99351.56;;;15.37;76.49
5522;BME280;2783;48.730;8.006;2023-03-23T06:07:42;99363.13;;;15.37;76.75
5522;BME280;2783;48.730;8.006;2023-03-23T06:10:08;99366.63;;;15.39;75.82
5522;BME280;2783;48.730;8.006;2023-03-23T06:12:34;99367.56;;;15.38;76.14
5522;BME280;2783;48.730;8.006;2023-03-23T06:14:59;99378.53;;;15.34;77.60
5522;BME280;2783;48.730;8.006;2023-03-23T06:17:25;99380.38;;;15.33;76.86
5522;BME280;2783;48.730;8.006;2023-03-23T06:19:51;99391.84;;;15.35;77.66
5522;BME280;2783;48.730;8.006;2023-03-23T06:22:16;99392.91;;;15.33;77.42
5522;BME280;2783;48.730;8.006;2023-03-23T06:24:42;99393.69;;;15.35;78.04
5522;BME280;2783;48.730;8.006;2023-03-23T06:27:07;99395.69;;;15.31;78.27
5522;BME280;2783;48.730;8.006;2023-03-23T06:29:34;99400.66;;;15.37;78.55
5522;BME280;2783;48.730;8.006;2023-03-23T06:32:00;99415.94;;;15.35;78.00
5522;BME280;2783;48.730;8.006;2023-03-23T06:34:27;99423.34;;;15.32;77.84
5522;BME280;2783;48.730;8.006;2023-03-23T06:36:53;99424.19;;;15.32;78.33
5522;BME280;2783;48.730;8.006;2023-03-23T06:39:18;99421.50;;;15.32;77.54
5522;BME280;2783;48.730;8.006;2023-03-23T06:41:44;99422.19;;;15.36;78.34
5522;BME280;2783;48.730;8.006;2023-03-23T06:44:09;99433.78;;;15.36;79.27
5522;BME280;2783;48.730;8.006;2023-03-23T06:46:38;99440.06;;;15.35;79.92
5522;BME280;2783;48.730;8.006;2023-03-23T06:49:03;99429.63;;;15.31;80.13
5522;BME280;2783;48.730;8.006;2023-03-23T06:51:30;99432.91;;;15.22;79.24
5522;BME280;2783;48.730;8.006;2023-03-23T06:53:55;99446.00;;;15.26;78.20
5522;BME280;2783;48.730;8.006;2023-03-23T06:56:20;99445.63;;;15.32;78.21
5522;BME280;2783;48.730;8.006;2023-03-23T06:58:46;99444.59;;;15.35;77.17
5522;BME280;2783;48.730;8.006;2023-03-23T07:01:11;99460.31;;;15.41;76.92
5522;BME280;2783;48.730;8.006;2023-03-23T07:03:37;99459.09;;;15.46;75.72
5522;BME280;2783;48.730;8.006;2023-03-23T07:06:03;99456.13;;;15.51;75.01
5522;BME280;2783;48.730;8.006;2023-03-23T07:08:29;99464.66;;;15.57;75.43
5522;BME280;2783;48.730;8.006;2023-03-23T07:10:54;99459.09;;;15.60;74.89
5522;BME280;2783;48.730;8.006;2023-03-23T07:13:20;99452.78;;;15.61;75.89
5522;BME280;2783;48.730;8.006;2023-03-23T07:15:46;99448.94;;;15.65;76.49
5522;BME280;2783;48.730;8.006;2023-03-23T07:18:12;99446.16;;;15.67;75.79
5522;BME280;2783;48.730;8.006;2023-03-23T07:20:37;99446.16;;;15.67;76.18
5522;BME280;2783;48.730;8.006;2023-03-23T07:23:03;99440.91;;;15.65;76.38
5522;BME280;2783;48.730;8.006;2023-03-23T07:25:30;99449.72;;;15.67;76.63
5522;BME280;2783;48.730;8.006;2023-03-23T07:27:56;99452.41;;;15.67;76.07
5522;BME280;2783;48.730;8.006;2023-03-23T07:30:21;99446.84;;;15.70;77.19
5522;BME280;2783;48.730;8.006;2023-03-23T07:32:46;99448.41;;;15.74;77.59
5522;BME280;2783;48.730;8.006;2023-03-23T07:35:12;99449.91;;;15.78;77.09
5522;BME280;2783;48.730;8.006;2023-03-23T07:37:37;99460.63;;;15.78;76.74
5522;BME280;2783;48.730;8.006;2023-03-23T07:40:03;99462.47;;;15.78;76.45
5522;BME280;2783;48.730;8.006;2023-03-23T07:42:40;99463.13;;;15.81;77.34
5522;BME280;2783;48.730;8.006;2023-03-23T07:45:05;99468.97;;;15.88;77.04
5522;BME280;2783;48.730;8.006;2023-03-23T07:47:31;99465.44;;;15.88;76.89
5522;BME280;2783;48.730;8.006;2023-03-23T07:49:56;99465.25;;;15.91;77.27
5522;BME280;2783;48.730;8.006;2023-03-23T07:52:21;99471.94;;;15.98;76.57
5522;BME280;2783;48.730;8.006;2023-03-23T07:54:47;99482.09;;;16.07;75.91
5522;BME280;2783;48.730;8.006;2023-03-23T07:57:12;99487.56;;;16.19;76.06
5522;BME280;2783;48.730;8.006;2023-03-23T07:59:37;99482.09;;;16.21;77.11
5522;BME280;2783;48.730;8.006;2023-03-23T08:02:03;99477.19;;;16.27;77.17
5522;BME280;2783;48.730;8.006;2023-03-23T08:04:28;99483.28;;;16.29;77.33
5522;BME280;2783;48.730;8.006;2023-03-23T08:06:54;99479.06;;;16.39;77.12
5522;BME280;2783;48.730;8.006;2023-03-23T08:09:19;99486.16;;;16.40;76.90
5522;BME280;2783;48.730;8.006;2023-03-23T08:11:44;99480.91;;;16.39;76.60
5522;BME280;2783;48.730;8.006;2023-03-23T08:14:10;99483.38;;;16.42;75.83
5522;BME280;2783;48.730;8.006;2023-03-23T08:16:36;99489.91;;;16.52;75.52
5522;BME280;2783;48.730;8.006;2023-03-23T08:19:01;99487.59;;;16.60;74.92
5522;BME280;2783;48.730;8.006;2023-03-23T08:21:27;99484.22;;;16.70;74.45
5522;BME280;2783;48.730;8.006;2023-03-23T08:23:52;99490.66;;;16.80;73.64
5522;BME280;2783;48.730;8.006;2023-03-23T08:26:18;99484.81;;;16.88;73.24
5522;BME280;2783;48.730;8.006;2023-03-23T08:28:44;99489.56;;;16.97;72.73
5522;BME280;2783;48.730;8.006;2023-03-23T08:31:10;99499.34;;;16.98;72.08
5522;BME280;2783;48.730;8.006;2023-03-23T08:33:37;99493.97;;;16.98;71.13
5522;BME280;2783;48.730;8.006;2023-03-23T08:36:02;99496.03;;;17.07;70.99
5522;BME280;2783;48.730;8.006;2023-03-23T08:38:28;99510.13;;;17.10;70.82
5522;BME280;2783;48.730;8.006;2023-03-23T08:41:00;99511.94;;;17.10;71.16
5522;BME280;2783;48.730;8.006;2023-03-23T08:43:26;99514.84;;;17.07;70.49
5522;BME280;2783;48.730;8.006;2023-03-23T08:45:52;99535.53;;;17.19;70.29
5522;BME280;2783;48.730;8.006;2023-03-23T08:48:18;99540.25;;;17.16;70.32
5522;BME280;2783;48.730;8.006;2023-03-23T08:50:43;99551.09;;;17.14;70.45
5522;BME280;2783;48.730;8.006;2023-03-23T08:53:08;99544.97;;;17.12;70.43
5522;BME280;2783;48.730;8.006;2023-03-23T08:55:34;99565.63;;;17.12;70.16
5522;BME280;2783;48.730;8.006;2023-03-23T08:57:59;99563.97;;;17.09;70.57
5522;BME280;2783;48.730;8.006;2023-03-23T09:00:25;99560.25;;;17.12;70.59
5522;BME280;2783;48.730;8.006;2023-03-23T09:02:52;99554.25;;;17.21;70.81
5522;BME280;2783;48.730;8.006;2023-03-23T09:05:18;99558.19;;;17.15;69.40
5522;BME280;2783;48.730;8.006;2023-03-23T09:07:45;99572.00;;;17.23;70.14
5522;BME280;2783;48.730;8.006;2023-03-23T09:10:11;99557.47;;;17.13;69.38
5522;BME280;2783;48.730;8.006;2023-03-23T09:12:38;99564.53;;;17.14;69.54
5522;BME280;2783;48.730;8.006;2023-03-23T09:15:04;99548.63;;;17.11;69.57
5522;BME280;2783;48.730;8.006;2023-03-23T09:17:33;99557.16;;;17.18;69.59
5522;BME280;2783;48.730;8.006;2023-03-23T09:19:59;99553.78;;;17.14;68.65
5522;BME280;2783;48.730;8.006;2023-03-23T09:22:24;99555.50;;;17.15;68.86
5522;BME280;2783;48.730;8.006;2023-03-23T09:24:49;99565.69;;;17.10;68.84
5522;BME280;2783;48.730;8.006;2023-03-23T09:27:16;99565.44;;;17.00;68.35
5522;BME280;2783;48.730;8.006;2023-03-23T09:29:42;99569.56;;;17.06;69.06
5522;BME280;2783;48.730;8.006;2023-03-23T09:32:09;99572.06;;;17.09;68.46
5522;BME280;2783;48.730;8.006;2023-03-23T09:34:34;99578.19;;;17.11;69.44
5522;BME280;2783;48.730;8.006;2023-03-23T09:37:01;99559.31;;;16.98;68.71
5522;BME280;2783;48.730;8.006;2023-03-23T09:39:29;99560.19;;;16.99;70.09
5522;BME280;2783;48.730;8.006;2023-03-23T09:41:59;99576.50;;;16.96;69.74
5522;BME280;2783;48.730;8.006;2023-03-23T09:47:22;99576.88;;;17.04;70.30
5522;BME280;2783;48.730;8.006;2023-03-23T09:49:55;99569.22;;;16.98;70.58
5522;BME280;2783;48.730;8.006;2023-03-23T09:52:22;99572.47;;;17.03;70.94
5522;BME280;2783;48.730;8.006;2023-03-23T09:54:51;99579.53;;;17.04;70.10
5522;BME280;2783;48.730;8.006;2023-03-23T09:57:30;99587.13;;;17.12;70.39
5522;BME280;2783;48.730;8.006;2023-03-23T09:59:58;99583.25;;;17.16;70.70
5522;BME280;2783;48.730;8.006;2023-03-23T10:02:36;99583.91;;;17.19;70.38
5522;BME280;2783;48.730;8.006;2023-03-23T10:07:44;99576.63;;;17.21;70.25
5522;BME280;2783;48.730;8.006;2023-03-23T10:10:12;99582.44;;;17.28;69.91
5522;BME280;2783;48.730;8.006;2023-03-23T10:15:23;99587.75;;;17.15;70.26
5522;BME280;2783;48.730;8.006;2023-03-23T10:17:55;99582.69;;;17.10;71.40
5522;BME280;2783;48.730;8.006;2023-03-23T10:20:41;99583.56;;;17.11;71.34
5522;BME280;2783;48.730;8.006;2023-03-23T10:28:36;99589.88;;;17.10;71.70
5522;BME280;2783;48.730;8.006;2023-03-23T10:31:02;99581.75;;;17.12;72.09
5522;BME280;2783;48.730;8.006;2023-03-23T10:33:41;99579.53;;;17.18;71.87
5522;BME280;2783;48.730;8.006;2023-03-23T10:38:58;99569.81;;;17.42;70.92
5522;BME280;2783;48.730;8.006;2023-03-23T10:41:24;99586.63;;;17.46;69.60
5522;BME280;2783;48.730;8.006;2023-03-23T10:43:50;99586.88;;;17.55;69.24
5522;BME280;2783;48.730;8.006;2023-03-23T10:49:02;99580.00;;;17.76;68.30
5522;BME280;2783;48.730;8.006;2023-03-23T10:51:33;99588.22;;;17.87;67.66
5522;BME280;2783;48.730;8.006;2023-03-23T10:54:00;99582.19;;;17.96;67.11
5522;BME280;2783;48.730;8.006;2023-03-23T10:56:28;99600.06;;;17.97;67.04
5522;BME280;2783;48.730;8.006;2023-03-23T10:58:54;99592.97;;;17.96;66.72
5522;BME280;2783;48.730;8.006;2023-03-23T11:01:20;99600.59;;;18.02;66.99
5522;BME280;2783;48.730;8.006;2023-03-23T11:03:53;99596.09;;;18.03;66.78
5522;BME280;2783;48.730;8.006;2023-03-23T11:06:23;99588.88;;;18.03;67.08
5522;BME280;2783;48.730;8.006;2023-03-23T11:11:16;99592.53;;;18.27;66.68
5522;BME280;2783;48.730;8.006;2023-03-23T11:13:42;99600.28;;;18.32;67.09
5522;BME280;2783;48.730;8.006;2023-03-23T11:16:10;99596.97;;;18.28;65.97
5522;BME280;2783;48.730;8.006;2023-03-23T11:18:47;99593.59;;;18.37;66.59
5522;BME280;2783;48.730;8.006;2023-03-23T11:21:12;99592.59;;;18.40;66.10
5522;BME280;2783;48.730;8.006;2023-03-23T11:23:40;99593.53;;;18.39;65.67
5522;BME280;2783;48.730;8.006;2023-03-23T11:28:43;99589.53;;;18.70;65.71
5522;BME280;2783;48.730;8.006;2023-03-23T11:31:10;99588.94;;;18.77;65.75
5522;BME280;2783;48.730;8.006;2023-03-23T11:33:58;99587.19;;;18.89;64.59
5522;BME280;2783;48.730;8.006;2023-03-23T11:36:28;99587.72;;;18.94;65.34
5522;BME280;2783;48.730;8.006;2023-03-23T11:38:54;99577.59;;;18.85;64.74
5522;BME280;2783;48.730;8.006;2023-03-23T11:41:21;99578.59;;;18.84;65.82
5522;BME280;2783;48.730;8.006;2023-03-23T11:43:47;99566.28;;;18.80;65.51
5522;BME280;2783;48.730;8.006;2023-03-23T11:46:29;99573.94;;;18.86;64.09
5522;BME280;2783;48.730;8.006;2023-03-23T11:49:04;99565.97;;;18.84;64.08
5522;BME280;2783;48.730;8.006;2023-03-23T11:54:02;99570.72;;;18.81;62.63
5522;BME280;2783;48.730;8.006;2023-03-23T11:56:30;99573.31;;;18.82;63.21
5522;BME280;2783;48.730;8.006;2023-03-23T11:58:58;99571.13;;;18.87;63.39
5522;BME280;2783;48.730;8.006;2023-03-23T12:06:53;99563.22;;;18.97;62.78
5522;BME280;2783;48.730;8.006;2023-03-23T12:14:51;99556.91;;;18.85;63.18
5522;BME280;2783;48.730;8.006;2023-03-23T12:17:34;99546.75;;;18.89;63.56
5522;BME280;2783;48.730;8.006;2023-03-23T12:27:55;99546.91;;;18.75;63.24
5522;BME280;2783;48.730;8.006;2023-03-23T12:33:02;99545.06;;;18.75;64.05
5522;BME280;2783;48.730;8.006;2023-03-23T12:40:42;99524.75;;;18.95;63.63
5522;BME280;2783;48.730;8.006;2023-03-23T12:43:15;99519.44;;;19.06;62.99
5522;BME280;2783;48.730;8.006;2023-03-23T12:48:45;99517.81;;;19.27;63.27
5522;BME280;2783;48.730;8.006;2023-03-23T12:51:21;99511.41;;;19.40;61.46
5522;BME280;2783;48.730;8.006;2023-03-23T12:54:08;99513.06;;;19.65;61.55
5522;BME280;2783;48.730;8.006;2023-03-23T12:56:43;99505.72;;;19.78;60.91
5522;BME280;2783;48.730;8.006;2023-03-23T13:01:40;99497.69;;;20.11;59.54
5522;BME280;2783;48.730;8.006;2023-03-23T13:06:34;99494.69;;;20.03;60.25
5522;BME280;2783;48.730;8.006;2023-03-23T13:09:02;99500.72;;;19.96;60.71
5522;BME280;2783;48.730;8.006;2023-03-23T13:16:54;99487.09;;;19.75;59.60
5522;BME280;2783;48.730;8.006;2023-03-23T13:24:33;99486.09;;;19.87;60.79
5522;BME280;2783;48.730;8.006;2023-03-23T13:27:00;99477.75;;;19.90;59.88
5522;BME280;2783;48.730;8.006;2023-03-23T13:29:26;99468.06;;;19.88;60.38
5522;BME280;2783;48.730;8.006;2023-03-23T13:31:52;99474.47;;;19.98;59.93
5522;BME280;2783;48.730;8.006;2023-03-23T13:34:30;99471.41;;;20.02;60.60
5522;BME280;2783;48.730;8.006;2023-03-23T13:36:57;99459.59;;;19.92;59.05
5522;BME280;2783;48.730;8.006;2023-03-23T13:39:36;99455.44;;;19.99;58.70
5522;BME280;2783;48.730;8.006;2023-03-23T13:47:46;99433.09;;;19.86;60.15
5522;BME280;2783;48.730;8.006;2023-03-23T13:52:23;99434.84;;;19.98;58.63
5522;BME280;2783;48.730;8.006;2023-03-23T13:54:48;99415.56;;;19.92;56.65
5522;BME280;2783;48.730;8.006;2023-03-23T13:57:24;99417.91;;;19.96;58.31
5522;BME280;2783;48.730;8.006;2023-03-23T13:59:55;99417.38;;;20.02;57.66
5522;BME280;2783;48.730;8.006;2023-03-23T14:07:52;99396.78;;;19.90;56.73
5522;BME280;2783;48.730;8.006;2023-03-23T14:10:18;99404.63;;;20.04;57.20
5522;BME280;2783;48.730;8.006;2023-03-23T14:12:43;99397.41;;;20.16;56.40
5522;BME280;2783;48.730;8.006;2023-03-23T14:15:13;99391.38;;;20.23;57.52
5522;BME280;2783;48.730;8.006;2023-03-23T14:17:42;99393.25;;;20.23;56.71
5522;BME280;2783;48.730;8.006;2023-03-23T14:20:09;99385.25;;;20.21;56.96
5522;BME280;2783;48.730;8.006;2023-03-23T14:22:42;99375.91;;;20.25;56.64
5522;BME280;2783;48.730;8.006;2023-03-23T14:25:15;99382.53;;;20.32;56.43
5522;BME280;2783;48.730;8.006;2023-03-23T14:27:40;99384.50;;;20.30;56.19
5522;BME280;2783;48.730;8.006;2023-03-23T14:30:07;99381.09;;;20.17;55.90
5522;BME280;2783;48.730;8.006;2023-03-23T14:32:33;99393.31;;;20.10;56.80
5522;BME280;2783;48.730;8.006;2023-03-23T14:34:59;99391.00;;;20.17;56.58
5522;BME280;2783;48.730;8.006;2023-03-23T14:37:26;99393.22;;;20.01;55.69
5522;BME280;2783;48.730;8.006;2023-03-23T14:39:53;99391.63;;;20.09;56.66
5522;BME280;2783;48.730;8.006;2023-03-23T14:42:39;99386.59;;;20.05;56.59
5522;BME280;2783;48.730;8.006;2023-03-23T14:45:04;99383.13;;;20.14;57.02
5522;BME280;2783;48.730;8.006;2023-03-23T14:47:34;99388.66;;;20.12;56.54
5522;BME280;2783;48.730;8.006;2023-03-23T14:50:02;99374.69;;;19.96;56.23
5522;BME280;2783;48.730;8.006;2023-03-23T14:52:29;99371.28;;;20.16;57.03
5522;BME280;2783;48.730;8.006;2023-03-23T14:55:09;99383.53;;;20.09;57.61
5522;BME280;2783;48.730;8.006;2023-03-23T14:57:36;99376.88;;;20.13;57.76
5522;BME280;2783;48.730;8.006;2023-03-23T15:00:05;99342.91;;;20.00;57.69
5522;BME280;2783;48.730;8.006;2023-03-23T15:02:32;99367.06;;;20.23;57.25
5522;BME280;2783;48.730;8.006;2023-03-23T15:05:09;99366.59;;;20.29;58.04
5522;BME280;2783;48.730;8.006;2023-03-23T15:07:36;99368.31;;;20.19;57.47